Terminal Aerodrome Forecast
Issued by NWS

Home | Current Version | Previous Version | Text Only | Print | Product List | Glossary On
Versions: 1 2 3 4 5 6 7 8 9 10 11 12 13 14 15 16 17 18 19 20 21 22 23 24 25 26 27 28 29 30 31 32 33 34 35 36 37
000
FTUS45 KBOI 011336 AAA
TAFJER
TAF AMD
KJER 011336Z 0114/0212 06008KT P6SM OVC200
      TEMPO 0114/0115 4SM BR BKN001 OVC200
     FM012000 33006KT P6SM OVC120
     FM020400 23008KT P6SM VCSH SCT020 OVC040=

USA.gov is the U.S. government's official web portal to all federal, state and local government web resources and services.